EGNX/EMA METAR and TAF weather

Enter ICAO airport designator
Station Type Date Time Source
EGNX METAR 2020/08/06 01:20 UTC NOAA

EGNX 060120Z 19007KT 9999 BKN023 BKN030 18/16 Q1013


Station Type Date Time Source
EGNX Decoded METAR 2020/08/06 01:20 UTC NOAA

East Midlands, United Kingdom (EGNX) 52-50N 001-20W
Aug 05, 2020 - 09:20 PM EDT / 2020.08.06 0120 UTC
Wind: from the S (190 degrees) at 8 MPH (7 KT):0
Visibility: greater than 7 mile(s):0
Sky conditions: mostly cloudy
Temperature: 64 F (18 C)
Dew Point: 60 F (16 C)
Relative Humidity: 88%
Pressure (altimeter): 29.91 in. Hg (1013 hPa)
ob: EGNX 060120Z 19007KT 9999 BKN023 BKN030 18/16 Q1013
cycle: 1

Station Type Date Time Source
EGNX TAF 2020/08/05 18:09 UTC NOAA

TAF EGNX 051654Z 0518/0618 20012KT 9999 SCT020 PROB30
TEMPO 0518/0520 20015G25KT 7000 SHRA
TEMPO 0519/0603 BKN014 PROB30
TEMPO 0603/0609 BKN014 PROB30
TEMPO 0612/0618 7000 SHRA

Example: see airport list